createdAt,value
2024-01-16T00:01:51.542Z,0.60
2024-01-16T00:04:18.636Z,0.47
2024-01-16T00:06:47.371Z,0.50
2024-01-16T00:09:15.572Z,0.70
2024-01-16T00:11:44.341Z,1.00
2024-01-16T00:14:11.857Z,0.50
2024-01-16T00:16:46.561Z,0.60
2024-01-16T00:19:13.942Z,0.43
2024-01-16T00:21:49.149Z,0.30
2024-01-16T00:24:16.172Z,0.40
2024-01-16T00:26:43.531Z,0.30
2024-01-16T00:29:10.838Z,0.57
2024-01-16T00:31:38.207Z,0.50
2024-01-16T00:34:05.116Z,0.50
2024-01-16T00:36:32.103Z,0.60
2024-01-16T00:38:59.122Z,0.60
2024-01-16T00:41:26.099Z,0.70
2024-01-16T00:43:53.206Z,0.53
2024-01-16T00:46:20.152Z,0.70
2024-01-16T00:48:47.166Z,0.60
2024-01-16T00:51:14.378Z,0.80
2024-01-16T00:53:42.514Z,0.60
2024-01-16T00:56:09.798Z,0.90
2024-01-16T00:58:37.170Z,0.70
2024-01-16T01:01:04.761Z,1.00
2024-01-16T01:03:31.924Z,0.60
2024-01-16T01:05:59.486Z,0.93
2024-01-16T01:08:26.591Z,0.60
2024-01-16T01:10:53.680Z,0.80
2024-01-16T01:13:20.587Z,0.47
2024-01-16T01:15:47.573Z,0.73
2024-01-16T01:18:14.664Z,0.37
2024-01-16T01:20:41.944Z,0.40
2024-01-16T01:23:08.889Z,0.70
2024-01-16T01:25:35.782Z,0.60
2024-01-16T01:28:02.739Z,0.63
2024-01-16T01:30:29.662Z,0.40
2024-01-16T01:32:56.650Z,0.50
2024-01-16T01:35:23.712Z,0.33
2024-01-16T01:37:50.658Z,0.63
2024-01-16T01:40:17.515Z,0.70
2024-01-16T01:42:44.415Z,0.30
2024-01-16T01:45:12.212Z,0.40
2024-01-16T01:47:43.911Z,0.60
2024-01-16T01:50:12.113Z,0.30
2024-01-16T01:52:42.504Z,0.43
2024-01-16T01:55:13.210Z,0.50
2024-01-16T01:57:41.659Z,0.40
2024-01-16T02:00:09.431Z,0.30
2024-01-16T02:02:42.992Z,0.60
2024-01-16T02:05:11.194Z,0.37
2024-01-16T02:07:39.232Z,0.60
2024-01-16T02:10:06.903Z,0.70
2024-01-16T02:12:33.911Z,0.47
2024-01-16T02:15:00.859Z,0.70
2024-01-16T02:17:27.886Z,0.67
2024-01-16T02:19:54.836Z,0.50
2024-01-16T02:22:25.139Z,0.80
2024-01-16T02:24:52.275Z,1.07
2024-01-16T02:27:19.135Z,0.60
2024-01-16T02:29:46.299Z,0.50
2024-01-16T02:32:14.753Z,0.80
2024-01-16T02:34:42.508Z,0.63
2024-01-16T02:37:09.587Z,0.50
2024-01-16T02:39:37.090Z,0.70
2024-01-16T02:42:04.106Z,0.70
2024-01-16T02:44:30.982Z,1.00
2024-01-16T02:46:58.238Z,0.83
2024-01-16T02:49:27.394Z,0.80
2024-01-16T02:51:55.601Z,0.73
2024-01-16T02:54:23.548Z,0.60
2024-01-16T02:56:51.104Z,0.80
2024-01-16T02:59:18.180Z,0.97
2024-01-16T03:01:45.156Z,1.03
2024-01-16T03:04:12.798Z,0.70
2024-01-16T03:06:39.947Z,0.50
2024-01-16T03:09:08.144Z,0.67
2024-01-16T03:11:35.214Z,0.50
2024-01-16T03:14:02.307Z,0.80
2024-01-16T03:16:29.223Z,0.60
2024-01-16T03:18:56.498Z,0.60
2024-01-16T03:21:23.473Z,0.60
2024-01-16T03:23:51.291Z,0.97
2024-01-16T03:26:18.445Z,0.50
2024-01-16T03:28:46.446Z,0.50
2024-01-16T03:31:15.545Z,0.77
2024-01-16T03:33:44.222Z,0.97
2024-01-16T03:36:12.523Z,0.67
2024-01-16T03:38:40.123Z,0.53
2024-01-16T03:41:08.425Z,0.60
2024-01-16T03:43:36.085Z,0.57
2024-01-16T03:46:03.305Z,1.03
2024-01-16T03:48:30.494Z,0.80
2024-01-16T03:50:57.805Z,0.47
2024-01-16T03:53:24.886Z,0.60
2024-01-16T03:55:52.232Z,0.90
2024-01-16T03:58:19.209Z,1.17
2024-01-16T04:00:46.474Z,0.67
2024-01-16T04:03:14.377Z,0.70
2024-01-16T04:05:41.605Z,1.00
2024-01-16T04:08:08.966Z,0.93
2024-01-16T04:10:36.407Z,0.83
2024-01-16T04:13:04.209Z,1.00
2024-01-16T04:15:31.316Z,0.90
2024-01-16T04:17:58.464Z,0.80
2024-01-16T04:20:25.690Z,0.80
2024-01-16T04:22:53.087Z,0.87
2024-01-16T04:25:19.895Z,0.73
2024-01-16T04:27:47.319Z,0.83
2024-01-16T04:30:14.802Z,0.60
2024-01-16T04:32:42.401Z,0.70
2024-01-16T04:35:10.095Z,0.60
2024-01-16T04:37:37.170Z,1.37
2024-01-16T04:40:06.500Z,0.60
2024-01-16T04:42:33.957Z,0.50
2024-01-16T04:45:00.892Z,1.40
2024-01-16T04:47:28.034Z,0.80
2024-01-16T04:49:55.262Z,0.50
2024-01-16T04:52:22.123Z,0.73
2024-01-16T04:54:49.111Z,0.50
2024-01-16T04:57:16.351Z,0.37
2024-01-16T04:59:43.366Z,0.60
2024-01-16T05:02:10.368Z,0.60
2024-01-16T05:04:39.416Z,0.50
2024-01-16T05:07:06.700Z,0.60
2024-01-16T05:09:33.684Z,0.67
2024-01-16T05:12:01.421Z,0.90
2024-01-16T05:14:28.416Z,0.90
2024-01-16T05:16:55.405Z,0.60
2024-01-16T05:19:22.321Z,0.77
2024-01-16T05:21:49.572Z,0.80
2024-01-16T05:24:16.584Z,0.80
2024-01-16T05:26:43.503Z,0.87
2024-01-16T05:29:10.601Z,0.53
2024-01-16T05:31:42.676Z,0.60
2024-01-16T05:34:12.623Z,0.70
2024-01-16T05:36:39.636Z,0.67
2024-01-16T05:39:06.563Z,0.93
2024-01-16T05:41:35.377Z,0.80
2024-01-16T05:44:04.785Z,0.60
2024-01-16T05:46:34.629Z,0.87
2024-01-16T05:49:01.986Z,0.67
2024-01-16T05:51:30.366Z,0.73
2024-01-16T05:53:57.674Z,0.93
2024-01-16T05:56:24.765Z,0.87
2024-01-16T05:58:53.361Z,0.80
2024-01-16T06:01:20.569Z,0.53
2024-01-16T06:03:50.246Z,0.50
2024-01-16T06:06:17.912Z,0.57
2024-01-16T06:08:45.196Z,0.73
2024-01-16T06:11:14.696Z,0.60
2024-01-16T06:13:42.409Z,0.50
2024-01-16T06:16:09.686Z,0.80
2024-01-16T06:18:37.247Z,0.87
2024-01-16T06:21:04.939Z,0.63
2024-01-16T06:23:32.026Z,0.40
2024-01-16T06:26:00.705Z,0.70
2024-01-16T06:28:27.566Z,0.63
2024-01-16T06:30:54.534Z,0.70
2024-01-16T06:33:21.761Z,0.73
2024-01-16T06:35:51.044Z,0.80
2024-01-16T06:38:19.862Z,0.77
2024-01-16T06:40:46.893Z,0.70
2024-01-16T06:43:16.832Z,0.90
2024-01-16T06:45:44.468Z,0.80
2024-01-16T06:48:12.011Z,0.90
2024-01-16T06:50:39.166Z,0.70
2024-01-16T06:53:06.240Z,0.60
2024-01-16T06:55:33.426Z,0.73
2024-01-16T06:58:00.325Z,0.60
2024-01-16T07:00:28.027Z,0.63
2024-01-16T07:02:56.099Z,0.60
2024-01-16T07:05:23.170Z,0.70
2024-01-16T07:07:53.042Z,0.77
2024-01-16T07:10:20.185Z,0.90
2024-01-16T07:12:47.362Z,0.80
2024-01-16T07:15:14.676Z,0.70
2024-01-16T07:17:42.572Z,0.70
2024-01-16T07:20:10.283Z,0.80
2024-01-16T07:22:43.029Z,1.00
2024-01-16T07:25:10.835Z,0.57
2024-01-16T07:27:38.892Z,0.50
2024-01-16T07:30:07.474Z,0.93
2024-01-16T07:32:35.077Z,0.63
2024-01-16T07:35:03.909Z,0.53
2024-01-16T07:37:30.982Z,0.83
2024-01-16T07:39:58.016Z,0.70
2024-01-16T07:42:25.138Z,0.93
2024-01-16T07:44:52.875Z,0.70
2024-01-16T07:47:20.438Z,1.30
2024-01-16T07:49:48.330Z,0.93
2024-01-16T07:52:15.225Z,1.20
2024-01-16T07:54:42.286Z,0.80
2024-01-16T07:57:09.134Z,1.07
2024-01-16T07:59:37.286Z,0.43
2024-01-16T08:02:04.740Z,0.80
2024-01-16T08:04:31.691Z,0.57
2024-01-16T08:06:59.087Z,0.67
2024-01-16T08:09:26.349Z,0.70
2024-01-16T08:11:53.315Z,0.60
2024-01-16T08:14:20.243Z,0.60
2024-01-16T08:16:47.314Z,0.63
2024-01-16T08:19:15.235Z,0.80
2024-01-16T08:21:42.160Z,0.73
2024-01-16T08:24:09.044Z,0.80
2024-01-16T08:26:36.133Z,2.37
2024-01-16T08:29:03.457Z,5.53
2024-01-16T08:31:30.480Z,4.40
2024-01-16T08:33:58.854Z,2.80
2024-01-16T08:36:25.973Z,1.43
2024-01-16T08:38:53.040Z,0.70
2024-01-16T08:41:20.001Z,0.40
2024-01-16T08:43:47.031Z,0.30
2024-01-16T08:46:14.218Z,0.50
2024-01-16T08:48:49.270Z,0.60
2024-01-16T08:51:16.591Z,0.60
2024-01-16T08:53:43.817Z,0.63
2024-01-16T08:56:12.689Z,0.80
2024-01-16T08:58:39.840Z,0.80
2024-01-16T09:01:07.198Z,0.70
2024-01-16T09:03:35.201Z,0.80
2024-01-16T09:06:02.615Z,0.53
2024-01-16T09:08:30.171Z,0.50
2024-01-16T09:10:57.782Z,0.30
2024-01-16T09:13:24.819Z,0.47
2024-01-16T09:15:51.761Z,0.30
2024-01-16T09:18:18.866Z,0.30
2024-01-16T09:20:46.692Z,0.30
2024-01-16T09:23:14.089Z,0.20
2024-01-16T09:25:41.405Z,0.30
2024-01-16T09:28:09.083Z,0.40
2024-01-16T09:30:36.661Z,0.30
2024-01-16T09:33:05.892Z,0.60
2024-01-16T09:35:34.857Z,0.50
2024-01-16T09:38:01.857Z,0.47
2024-01-16T09:40:28.956Z,0.30
2024-01-16T09:42:57.055Z,0.50
2024-01-16T09:45:26.005Z,0.37
2024-01-16T09:47:54.503Z,0.40
2024-01-16T09:50:22.130Z,0.50
2024-01-16T09:52:50.177Z,0.40
2024-01-16T09:55:17.463Z,0.30
2024-01-16T09:57:47.311Z,0.50
2024-01-16T10:00:15.255Z,0.30
2024-01-16T10:02:43.443Z,0.33
2024-01-16T10:05:14.760Z,0.10
2024-01-16T10:07:46.462Z,0.40
2024-01-16T10:10:13.651Z,0.50
2024-01-16T10:12:41.370Z,0.40
2024-01-16T10:15:09.975Z,0.30
2024-01-16T10:17:42.374Z,0.60
2024-01-16T10:20:18.575Z,0.33
2024-01-16T10:22:55.329Z,0.20
2024-01-16T10:25:23.817Z,0.40
2024-01-16T10:28:03.451Z,0.30
2024-01-16T10:30:31.023Z,0.70
2024-01-16T10:33:14.010Z,0.47
2024-01-16T10:35:42.322Z,0.43
2024-01-16T10:38:09.474Z,0.50
2024-01-16T10:40:36.396Z,0.60
2024-01-16T10:43:05.656Z,0.60
2024-01-16T10:45:33.778Z,0.60
2024-01-16T10:48:05.921Z,0.80
2024-01-16T10:50:34.669Z,1.00
2024-01-16T10:53:05.304Z,0.50
2024-01-16T10:55:36.008Z,0.60
2024-01-16T10:58:04.338Z,0.80
2024-01-16T11:00:34.550Z,1.30
2024-01-16T11:03:11.186Z,1.90
2024-01-16T11:05:39.095Z,0.80
2024-01-16T11:08:07.443Z,0.70
2024-01-16T11:10:36.696Z,0.80
2024-01-16T11:13:06.128Z,0.50
2024-01-16T11:15:33.503Z,0.43
2024-01-16T11:18:03.044Z,0.30
2024-01-16T11:20:54.705Z,0.47
2024-01-16T11:23:18.251Z,0.50
2024-01-16T11:25:45.094Z,0.57
2024-01-16T11:28:14.610Z,0.43
2024-01-16T11:30:42.495Z,0.30
2024-01-16T11:33:32.202Z,0.40
2024-01-16T11:35:59.702Z,0.40
2024-01-16T11:38:30.487Z,0.47
2024-01-16T11:40:57.554Z,0.63
2024-01-16T11:43:33.558Z,0.53
2024-01-16T11:46:11.189Z,0.80
2024-01-16T11:48:40.702Z,0.80
2024-01-16T11:51:41.962Z,0.67
2024-01-16T11:54:10.388Z,1.50
2024-01-16T11:56:59.105Z,0.80
2024-01-16T11:59:56.050Z,0.77
2024-01-16T12:02:30.891Z,0.67
2024-01-16T12:04:58.172Z,0.50
2024-01-16T12:07:25.264Z,0.53
2024-01-16T12:09:52.306Z,0.70
2024-01-16T12:12:22.277Z,0.70
2024-01-16T12:14:55.960Z,0.60
2024-01-16T12:17:23.257Z,0.87
2024-01-16T12:19:50.965Z,0.73
2024-01-16T12:22:23.992Z,1.07
2024-01-16T12:24:56.706Z,0.70
2024-01-16T12:27:23.774Z,0.70
2024-01-16T12:29:53.202Z,0.90
2024-01-16T12:32:22.501Z,0.83
2024-01-16T12:34:50.007Z,1.10
2024-01-16T12:37:17.970Z,1.07
2024-01-16T12:39:44.958Z,1.10
2024-01-16T12:42:15.716Z,1.00
2024-01-16T12:44:42.853Z,1.23
2024-01-16T12:47:09.881Z,1.03
2024-01-16T12:49:45.909Z,1.00
2024-01-16T12:52:23.615Z,1.10
2024-01-16T12:55:01.732Z,1.30
2024-01-16T12:57:28.956Z,1.10
2024-01-16T12:59:58.536Z,1.33
2024-01-16T13:02:26.674Z,1.30
2024-01-16T13:05:01.508Z,1.30
2024-01-16T13:07:29.180Z,1.70
2024-01-16T13:10:20.021Z,1.47
2024-01-16T13:12:47.623Z,1.60
2024-01-16T13:15:18.340Z,1.40
2024-01-16T13:17:45.724Z,1.50
2024-01-16T13:20:14.498Z,1.23
2024-01-16T13:22:45.361Z,1.37
2024-01-16T13:25:15.496Z,1.17
2024-01-16T13:27:42.335Z,1.67
2024-01-16T13:30:09.813Z,2.63
2024-01-16T13:32:38.878Z,1.30
2024-01-16T13:35:10.130Z,1.03
2024-01-16T13:37:39.122Z,0.83
2024-01-16T13:40:16.876Z,1.03
2024-01-16T13:42:44.319Z,1.00
2024-01-16T13:45:14.750Z,0.60
2024-01-16T13:47:42.387Z,1.00
2024-01-16T13:50:10.512Z,1.30
2024-01-16T13:52:38.070Z,1.30
2024-01-16T13:55:06.982Z,1.10
2024-01-16T13:57:36.584Z,1.27
2024-01-16T14:00:08.703Z,1.03
2024-01-16T14:02:44.885Z,1.50
2024-01-16T14:05:13.396Z,1.20
2024-01-16T14:07:40.453Z,1.00
2024-01-16T14:10:13.550Z,1.20
2024-01-16T14:12:43.890Z,0.90
2024-01-16T14:15:20.965Z,1.20
2024-01-16T14:17:49.946Z,1.00
2024-01-16T14:20:18.878Z,1.47
2024-01-16T14:22:46.200Z,1.50
2024-01-16T14:25:14.216Z,1.20
2024-01-16T14:27:45.052Z,0.90
2024-01-16T14:30:16.919Z,0.57
2024-01-16T14:32:45.704Z,0.70
2024-01-16T14:35:15.238Z,0.80
2024-01-16T14:37:42.275Z,0.90
2024-01-16T14:40:13.799Z,0.70
2024-01-16T14:42:41.051Z,0.77
2024-01-16T14:45:09.251Z,0.47
2024-01-16T14:47:36.711Z,1.00
2024-01-16T14:50:04.957Z,0.60
2024-01-16T14:52:35.490Z,0.80
2024-01-16T14:55:03.382Z,0.80
2024-01-16T14:57:32.055Z,0.50
2024-01-16T14:59:58.971Z,0.63
2024-01-16T15:02:26.130Z,0.70
2024-01-16T15:04:53.004Z,0.70
2024-01-16T15:07:19.924Z,0.73
2024-01-16T15:09:46.958Z,0.80
2024-01-16T15:12:15.004Z,0.77
2024-01-16T15:14:42.112Z,0.63
2024-01-16T15:17:09.171Z,0.63
2024-01-16T15:19:38.631Z,0.73
2024-01-16T15:22:07.611Z,0.70
2024-01-16T15:24:35.046Z,0.97
2024-01-16T15:27:02.104Z,1.00
2024-01-16T15:29:29.351Z,0.93
2024-01-16T15:31:57.504Z,0.70
2024-01-16T15:34:24.508Z,1.20
2024-01-16T15:36:51.777Z,1.17
2024-01-16T15:39:18.789Z,1.10
2024-01-16T15:41:46.261Z,1.00
2024-01-16T15:44:14.597Z,0.70
2024-01-16T15:47:04.330Z,1.20
2024-01-16T15:49:32.672Z,0.97
2024-01-16T15:52:00.583Z,0.60
2024-01-16T15:54:28.400Z,0.60
2024-01-16T15:56:55.649Z,1.10
2024-01-16T15:59:22.569Z,0.80
2024-01-16T16:01:49.705Z,0.80
2024-01-16T16:04:16.686Z,0.60
2024-01-16T16:06:43.685Z,0.60
2024-01-16T16:09:12.699Z,0.80
2024-01-16T16:11:45.452Z,0.87
2024-01-16T16:14:13.296Z,0.80
2024-01-16T16:16:44.477Z,1.00
2024-01-16T16:19:12.068Z,0.60
2024-01-16T16:21:39.698Z,0.97
2024-01-16T16:24:07.111Z,0.80
2024-01-16T16:26:43.938Z,0.53
2024-01-16T16:29:13.453Z,0.70
2024-01-16T16:31:41.602Z,0.77
2024-01-16T16:34:15.769Z,0.60
2024-01-16T16:36:44.077Z,0.80
2024-01-16T16:39:11.000Z,0.80
2024-01-16T16:41:42.270Z,0.90
2024-01-16T16:44:09.634Z,0.87
2024-01-16T16:46:37.023Z,0.80
2024-01-16T16:49:04.211Z,0.90
2024-01-16T16:51:31.269Z,0.83
2024-01-16T16:53:58.167Z,0.53
2024-01-16T16:56:25.229Z,0.87
2024-01-16T16:58:53.149Z,1.00
2024-01-16T17:01:21.472Z,0.90
2024-01-16T17:03:53.209Z,1.10
2024-01-16T17:06:20.751Z,1.30
2024-01-16T17:08:48.020Z,1.17
2024-01-16T17:11:15.078Z,1.03
2024-01-16T17:13:43.882Z,0.87
2024-01-16T17:16:10.787Z,0.70
2024-01-16T17:18:39.651Z,0.87
2024-01-16T17:21:08.225Z,1.00
2024-01-16T17:23:37.248Z,1.00
2024-01-16T17:26:06.263Z,0.87
2024-01-16T17:28:33.672Z,0.80
2024-01-16T17:31:00.810Z,0.80
2024-01-16T17:33:28.178Z,0.70
2024-01-16T17:36:04.169Z,0.70
2024-01-16T17:38:32.068Z,0.63
2024-01-16T17:41:00.423Z,0.70
2024-01-16T17:43:27.428Z,0.80
2024-01-16T17:45:54.232Z,0.87
2024-01-16T17:48:21.451Z,0.60
2024-01-16T17:50:48.786Z,0.67
2024-01-16T17:53:15.934Z,0.87
2024-01-16T17:55:43.535Z,0.83
2024-01-16T17:58:11.885Z,0.80
2024-01-16T18:00:39.605Z,0.70
2024-01-16T18:03:17.914Z,0.70
2024-01-16T18:05:51.488Z,0.80
2024-01-16T18:08:18.753Z,0.60
2024-01-16T18:10:46.481Z,0.63
2024-01-16T18:13:13.366Z,0.90
2024-01-16T18:15:40.395Z,0.90
2024-01-16T18:18:10.947Z,0.90
2024-01-16T18:20:38.257Z,0.80
2024-01-16T18:23:07.985Z,1.20
2024-01-16T18:25:35.492Z,0.90
2024-01-16T18:28:02.509Z,0.87
2024-01-16T18:30:29.698Z,1.10
2024-01-16T18:32:58.003Z,1.07
2024-01-16T18:35:26.237Z,1.03
2024-01-16T18:37:56.311Z,1.33
2024-01-16T18:40:24.800Z,0.80
2024-01-16T18:42:51.816Z,3.43
2024-01-16T18:45:19.452Z,3.07
2024-01-16T18:47:49.438Z,1.07
2024-01-16T18:50:18.875Z,1.37
2024-01-16T18:52:46.690Z,1.03
2024-01-16T18:55:14.766Z,1.10
2024-01-16T18:57:42.924Z,1.63
2024-01-16T19:00:23.227Z,0.93
2024-01-16T19:02:50.275Z,1.17
2024-01-16T19:05:17.885Z,1.30
2024-01-16T19:07:46.020Z,1.03
2024-01-16T19:10:14.624Z,1.30
2024-01-16T19:12:47.540Z,1.10
2024-01-16T19:15:20.832Z,1.10
2024-01-16T19:17:49.214Z,1.20
2024-01-16T19:20:16.443Z,1.20
2024-01-16T19:22:48.572Z,1.27
2024-01-16T19:25:17.765Z,1.60
2024-01-16T19:27:49.005Z,1.53
2024-01-16T19:30:16.997Z,1.27
2024-01-16T19:32:45.197Z,1.13
2024-01-16T19:35:13.341Z,1.80
2024-01-16T19:37:43.898Z,1.63
2024-01-16T19:40:13.281Z,1.57
2024-01-16T19:42:40.800Z,1.50
2024-01-16T19:45:10.564Z,1.77
2024-01-16T19:47:40.770Z,1.57
2024-01-16T19:50:21.040Z,1.70
2024-01-16T19:52:51.904Z,1.90
2024-01-16T19:55:23.530Z,2.00
2024-01-16T19:57:54.651Z,1.80
2024-01-16T20:00:21.916Z,1.83
2024-01-16T20:02:50.269Z,2.03
2024-01-16T20:05:17.924Z,1.80
2024-01-16T20:07:49.066Z,2.30
2024-01-16T20:10:19.461Z,2.03
2024-01-16T20:12:49.737Z,2.03
2024-01-16T20:15:20.957Z,2.10
2024-01-16T20:17:49.936Z,2.67
2024-01-16T20:20:17.166Z,2.23
2024-01-16T20:22:44.994Z,2.50
2024-01-16T20:25:15.693Z,2.77
2024-01-16T20:27:43.691Z,2.03
2024-01-16T20:30:12.070Z,2.20
2024-01-16T20:32:43.078Z,1.80
2024-01-16T20:35:11.142Z,2.30
2024-01-16T20:37:38.447Z,2.20
2024-01-16T20:40:07.013Z,2.40
2024-01-16T20:42:34.007Z,2.57
2024-01-16T20:45:01.174Z,2.43
2024-01-16T20:47:31.873Z,2.57
2024-01-16T20:49:58.923Z,2.20
2024-01-16T20:52:26.110Z,2.53
2024-01-16T20:54:53.004Z,2.40
2024-01-16T20:57:20.227Z,2.30
2024-01-16T20:59:47.223Z,2.20
2024-01-16T21:02:14.096Z,2.30
2024-01-16T21:04:41.173Z,2.10
2024-01-16T21:07:08.563Z,2.23
2024-01-16T21:09:35.635Z,2.30
2024-01-16T21:12:04.937Z,2.20
2024-01-16T21:14:33.273Z,2.00
2024-01-16T21:17:00.413Z,2.37
2024-01-16T21:19:27.345Z,2.00
2024-01-16T21:21:58.394Z,2.40
2024-01-16T21:24:25.402Z,1.87
2024-01-16T21:26:52.356Z,2.77
2024-01-16T21:29:20.200Z,2.67
2024-01-16T21:31:49.766Z,2.77
2024-01-16T21:34:18.352Z,2.10
2024-01-16T21:36:48.449Z,2.43
2024-01-16T21:39:16.448Z,2.80
2024-01-16T21:41:44.194Z,2.73
2024-01-16T21:44:11.930Z,2.67
2024-01-16T21:46:43.702Z,2.80
2024-01-16T21:49:11.859Z,2.50
2024-01-16T21:51:39.351Z,2.10
2024-01-16T21:54:07.195Z,1.93
2024-01-16T21:56:34.674Z,2.00
2024-01-16T21:59:01.817Z,2.23
2024-01-16T22:01:30.075Z,2.30
2024-01-16T22:03:57.811Z,2.60
2024-01-16T22:06:25.988Z,2.20
2024-01-16T22:08:54.478Z,2.00
2024-01-16T22:11:21.574Z,2.43
2024-01-16T22:13:48.718Z,2.47
2024-01-16T22:16:16.026Z,2.33
2024-01-16T22:18:47.235Z,2.30
2024-01-16T22:21:16.482Z,2.20
2024-01-16T22:23:43.364Z,2.23
2024-01-16T22:26:10.225Z,2.10
2024-01-16T22:28:38.988Z,2.13
2024-01-16T22:31:06.295Z,1.87
2024-01-16T22:33:33.682Z,1.70
2024-01-16T22:36:01.520Z,2.00
2024-01-16T22:38:28.731Z,1.77
2024-01-16T22:40:57.293Z,1.83
2024-01-16T22:43:24.444Z,2.23
2024-01-16T22:45:52.734Z,2.20
2024-01-16T22:48:20.346Z,2.00
2024-01-16T22:50:51.019Z,2.07
2024-01-16T22:53:18.808Z,1.63
2024-01-16T22:55:49.959Z,1.90
2024-01-16T22:58:17.979Z,2.10
2024-01-16T23:00:44.871Z,1.63
2024-01-16T23:03:13.707Z,2.20
2024-01-16T23:05:40.733Z,1.80
2024-01-16T23:08:11.734Z,1.30
2024-01-16T23:10:38.880Z,1.23
2024-01-16T23:13:05.819Z,1.93
2024-01-16T23:15:33.033Z,1.80
2024-01-16T23:18:00.377Z,1.67
2024-01-16T23:20:31.889Z,1.83
2024-01-16T23:22:58.813Z,1.90
2024-01-16T23:25:27.293Z,1.83
2024-01-16T23:27:54.329Z,1.70
2024-01-16T23:30:21.285Z,1.70
2024-01-16T23:32:48.260Z,1.87
2024-01-16T23:35:15.287Z,2.00
2024-01-16T23:37:45.063Z,2.10
2024-01-16T23:40:13.882Z,2.30
2024-01-16T23:42:42.654Z,1.93
2024-01-16T23:45:20.530Z,2.40
2024-01-16T23:47:55.694Z,1.67
2024-01-16T23:50:23.471Z,2.20
2024-01-16T23:52:51.120Z,2.20
2024-01-16T23:55:19.230Z,2.17
2024-01-16T23:57:46.633Z,2.60
